createdAt,value
2019-01-18T00:02:34.500Z,-7.60
2019-01-18T00:05:06.186Z,-7.60
2019-01-18T00:07:38.572Z,-7.60
2019-01-18T00:10:10.624Z,-7.60
2019-01-18T00:12:44.200Z,-7.40
2019-01-18T00:15:16.808Z,-7.50
2019-01-18T00:17:48.218Z,-7.60
2019-01-18T00:20:21.116Z,-7.60
2019-01-18T00:22:51.284Z,-7.60
2019-01-18T00:25:20.530Z,-7.50
2019-01-18T00:27:49.921Z,-7.50
2019-01-18T00:30:20.041Z,-7.60
2019-01-18T00:32:51.789Z,-7.60
2019-01-18T00:35:23.208Z,-7.60
2019-01-18T00:37:56.233Z,-7.70
2019-01-18T00:40:30.069Z,-7.60
2019-01-18T00:43:03.563Z,-7.70
2019-01-18T00:45:36.308Z,-7.70
2019-01-18T00:48:10.345Z,-7.70
2019-01-18T00:50:44.369Z,-7.70
2019-01-18T00:53:16.406Z,-7.70
2019-01-18T00:55:47.308Z,-7.70
2019-01-18T00:58:16.778Z,-7.80
2019-01-18T01:00:46.576Z,-7.80
2019-01-18T01:03:16.274Z,-7.80
2019-01-18T01:05:46.344Z,-7.80
2019-01-18T01:08:15.471Z,-7.80
2019-01-18T01:10:48.244Z,-7.80
2019-01-18T01:13:22.056Z,-7.70
2019-01-18T01:15:55.776Z,-7.80
2019-01-18T01:18:27.593Z,-7.80
2019-01-18T01:20:59.960Z,-7.80
2019-01-18T01:23:31.889Z,-7.70
2019-01-18T01:26:02.938Z,-7.80
2019-01-18T01:28:34.132Z,-7.80
2019-01-18T01:31:06.136Z,-7.80
2019-01-18T01:33:38.164Z,-7.80
2019-01-18T01:36:12.972Z,-7.90
2019-01-18T01:38:47.892Z,-7.90
2019-01-18T01:41:20.397Z,-7.90
2019-01-18T01:43:51.400Z,-7.90
2019-01-18T01:46:22.393Z,-7.90
2019-01-18T01:48:52.107Z,-7.90
2019-01-18T01:51:23.054Z,-7.80
2019-01-18T01:53:55.416Z,-7.90
2019-01-18T01:56:26.464Z,-7.90
2019-01-18T01:58:57.270Z,-7.90
2019-01-18T02:01:28.014Z,-7.90
2019-01-18T02:04:00.552Z,-7.90
2019-01-18T02:06:33.209Z,-7.90
2019-01-18T02:09:04.634Z,-7.90
2019-01-18T02:11:36.149Z,-7.90
2019-01-18T02:14:07.664Z,-7.90
2019-01-18T02:16:40.521Z,-7.90
2019-01-18T02:19:11.945Z,-7.90
2019-01-18T02:21:44.841Z,-7.90
2019-01-18T02:24:17.309Z,-7.80
2019-01-18T02:26:46.850Z,-7.90
2019-01-18T02:29:18.637Z,-7.80
2019-01-18T02:31:51.195Z,-7.80
2019-01-18T02:34:25.868Z,-7.80
2019-01-18T02:36:58.205Z,-7.70
2019-01-18T02:39:29.696Z,-7.70
2019-01-18T02:42:01.209Z,-7.70
2019-01-18T02:44:33.113Z,-7.70
2019-01-18T02:47:03.475Z,-7.70
2019-01-18T02:49:34.576Z,-7.70
2019-01-18T02:52:08.074Z,-7.60
2019-01-18T02:54:38.929Z,-7.60
2019-01-18T02:57:13.899Z,-7.60
2019-01-18T02:59:44.988Z,-7.70
2019-01-18T03:02:16.228Z,-7.60
2019-01-18T03:04:47.750Z,-7.60
2019-01-18T03:07:20.350Z,-7.60
2019-01-18T03:09:51.325Z,-7.70
2019-01-18T03:12:22.852Z,-7.60
2019-01-18T03:14:54.092Z,-7.60
2019-01-18T03:17:26.376Z,-7.70
2019-01-18T03:19:57.785Z,-7.70
2019-01-18T03:22:27.836Z,-7.70
2019-01-18T03:24:58.842Z,-7.60
2019-01-18T03:27:30.734Z,-7.50
2019-01-18T03:30:02.148Z,-7.60
2019-01-18T03:32:34.844Z,-7.70
2019-01-18T03:35:07.066Z,-7.70
2019-01-18T03:37:37.928Z,-7.70
2019-01-18T03:40:09.490Z,-7.70
2019-01-18T03:42:43.050Z,-7.70
2019-01-18T03:45:17.004Z,-7.60
2019-01-18T03:47:49.005Z,-7.70
2019-01-18T03:50:20.984Z,-7.70
2019-01-18T03:52:52.957Z,-7.70
2019-01-18T03:55:26.225Z,-7.70
2019-01-18T03:57:57.610Z,-7.70
2019-01-18T04:00:30.276Z,-7.70
2019-01-18T04:03:02.229Z,-7.70
2019-01-18T04:05:33.153Z,-7.70
2019-01-18T04:08:04.160Z,-7.60
2019-01-18T04:10:39.795Z,-7.60
2019-01-18T04:13:30.870Z,-7.60
2019-01-18T04:16:04.791Z,-7.60
2019-01-18T04:18:39.137Z,-7.60
2019-01-18T04:21:11.850Z,-7.60
2019-01-18T04:23:43.786Z,-7.60
2019-01-18T04:26:15.266Z,-7.60
2019-01-18T04:28:46.071Z,-7.50
2019-01-18T04:31:16.858Z,-7.60
2019-01-18T04:33:50.918Z,-7.50
2019-01-18T04:36:22.357Z,-7.50
2019-01-18T04:38:53.818Z,-7.40
2019-01-18T04:41:25.257Z,-7.50
2019-01-18T04:43:56.094Z,-7.40
2019-01-18T04:46:26.045Z,-7.40
2019-01-18T04:48:57.547Z,-7.40
2019-01-18T04:51:31.157Z,-7.40
2019-01-18T04:54:05.117Z,-7.40
2019-01-18T04:56:36.626Z,-7.40
2019-01-18T04:59:09.051Z,-7.40
2019-01-18T05:01:39.996Z,-7.40
2019-01-18T05:04:09.477Z,-7.40
2019-01-18T05:06:38.985Z,-7.40
2019-01-18T05:09:12.663Z,-7.40
2019-01-18T05:11:47.063Z,-7.30
2019-01-18T05:14:20.749Z,-7.30
2019-01-18T05:16:51.698Z,-7.20
2019-01-18T05:19:21.734Z,-7.10
2019-01-18T05:21:51.924Z,-7.20
2019-01-18T05:24:24.946Z,-7.20
2019-01-18T05:26:56.096Z,-7.10
2019-01-18T05:29:27.033Z,-7.10
2019-01-18T05:32:00.653Z,-7.10
2019-01-18T05:34:33.260Z,-7.00
2019-01-18T05:37:05.861Z,-7.00
2019-01-18T05:39:39.179Z,-7.00
2019-01-18T05:42:10.779Z,-6.90
2019-01-18T05:44:43.440Z,-7.00
2019-01-18T05:47:15.247Z,-6.90
2019-01-18T05:49:47.144Z,-6.90
2019-01-18T05:52:19.677Z,-6.90
2019-01-18T05:54:52.081Z,-6.90
2019-01-18T05:57:23.561Z,-6.90
2019-01-18T05:59:55.967Z,-6.80
2019-01-18T06:02:28.074Z,-6.80
2019-01-18T06:04:58.745Z,-6.80
2019-01-18T06:07:29.881Z,-6.80
2019-01-18T06:09:59.001Z,-6.80
2019-01-18T06:12:29.450Z,-6.80
2019-01-18T06:15:02.532Z,-6.80
2019-01-18T06:17:33.589Z,-6.80
2019-01-18T06:20:07.934Z,-6.80
2019-01-18T06:22:38.748Z,-6.80
2019-01-18T06:25:10.490Z,-6.80
2019-01-18T06:27:44.968Z,-6.80
2019-01-18T06:30:18.830Z,-6.80
2019-01-18T06:32:59.054Z,-6.80
2019-01-18T06:35:30.036Z,-6.70
2019-01-18T06:38:11.818Z,-6.70
2019-01-18T06:40:43.835Z,-6.70
2019-01-18T06:43:14.253Z,-6.60
2019-01-18T06:45:46.192Z,-6.60
2019-01-18T06:48:21.402Z,-6.50
2019-01-18T06:50:54.919Z,-6.60
2019-01-18T06:53:27.914Z,-6.50
2019-01-18T06:56:00.845Z,-6.60
2019-01-18T06:58:31.146Z,-6.60
2019-01-18T07:01:08.324Z,-6.60
2019-01-18T07:03:34.472Z,-6.60
2019-01-18T07:06:05.877Z,-6.60
2019-01-18T07:08:38.928Z,-6.70
2019-01-18T07:11:10.488Z,-6.70
2019-01-18T07:13:42.094Z,-6.70
2019-01-18T07:16:14.616Z,-6.70
2019-01-18T07:18:46.634Z,-6.70
2019-01-18T07:21:20.659Z,-6.80
2019-01-18T07:23:52.146Z,-6.80
2019-01-18T07:26:23.087Z,-6.70
2019-01-18T07:28:53.258Z,-6.70
2019-01-18T07:31:25.084Z,-6.70
2019-01-18T07:33:56.686Z,-6.70
2019-01-18T07:36:28.695Z,-6.70
2019-01-18T07:39:22.471Z,-6.60
2019-01-18T07:41:53.781Z,-6.60
2019-01-18T07:44:23.350Z,-6.50
2019-01-18T07:46:56.777Z,-6.60
2019-01-18T07:49:28.092Z,-6.50
2019-01-18T07:51:59.339Z,-6.40
2019-01-18T07:54:29.426Z,-6.40
2019-01-18T07:56:58.500Z,-6.40
2019-01-18T07:59:29.354Z,-6.40
2019-01-18T08:02:02.529Z,-6.40
2019-01-18T08:04:33.528Z,-6.40
2019-01-18T08:07:06.141Z,-6.30
2019-01-18T08:09:36.914Z,-6.30
2019-01-18T08:12:08.333Z,-6.30
2019-01-18T08:14:40.603Z,-6.30
2019-01-18T08:17:11.669Z,-6.40
2019-01-18T08:19:44.311Z,-6.40
2019-01-18T08:22:15.868Z,-6.40
2019-01-18T08:24:48.698Z,-6.40
2019-01-18T08:27:20.569Z,-6.30
2019-01-18T08:29:56.026Z,-6.30
2019-01-18T08:32:29.500Z,-6.30
2019-01-18T08:35:02.649Z,-6.30
2019-01-18T08:37:33.222Z,-6.30
2019-01-18T08:40:04.159Z,-6.30
2019-01-18T08:42:34.462Z,-6.30
2019-01-18T08:45:03.576Z,-6.30
2019-01-18T08:47:33.558Z,-6.20
2019-01-18T08:50:04.670Z,-6.30
2019-01-18T08:52:37.005Z,-6.20
2019-01-18T08:55:09.329Z,-6.20
2019-01-18T08:57:42.613Z,-6.20
2019-01-18T09:00:15.233Z,-6.00
2019-01-18T09:02:46.298Z,-6.00
2019-01-18T09:05:16.268Z,-6.00
2019-01-18T09:07:47.689Z,-6.00
2019-01-18T10:17:07.741Z,-5.10
2019-01-18T10:19:41.323Z,-4.80
2019-01-18T10:22:12.879Z,-4.90
2019-01-18T10:24:44.974Z,-4.70
2019-01-18T10:27:17.308Z,-4.70
2019-01-18T10:29:51.240Z,-4.70
2019-01-18T10:32:23.737Z,-4.60
2019-01-18T10:34:56.056Z,-4.60
2019-01-18T10:37:27.145Z,-4.50
2019-01-18T10:39:57.582Z,-4.40
2019-01-18T10:42:28.571Z,-4.30
2019-01-18T10:45:18.028Z,-4.40
2019-01-18T10:47:48.376Z,-4.40
2019-01-18T10:50:19.785Z,-4.30
2019-01-18T10:52:51.065Z,-4.30
2019-01-18T10:55:23.036Z,-4.20
2019-01-18T10:57:54.134Z,-4.30
2019-01-18T11:00:26.845Z,-4.20
2019-01-18T11:02:58.002Z,-4.20
2019-01-18T11:05:35.128Z,-4.20
2019-01-18T11:08:09.995Z,-4.10
2019-01-18T11:10:40.984Z,-4.10
2019-01-18T11:13:12.474Z,-4.00
2019-01-18T11:15:45.906Z,-4.00
2019-01-18T11:18:20.913Z,-3.90
2019-01-18T11:20:56.154Z,-3.90
2019-01-18T11:23:29.297Z,-3.90
2019-01-18T11:26:00.726Z,-3.90
2019-01-18T11:28:34.469Z,-3.80
2019-01-18T11:31:10.199Z,-3.80
2019-01-18T11:33:46.044Z,-3.70
2019-01-18T11:36:20.368Z,-3.80
2019-01-18T11:38:55.179Z,-3.80
2019-01-18T11:41:31.859Z,-3.70
2019-01-18T11:44:02.491Z,-3.60
2019-01-18T11:46:33.871Z,-3.70
2019-01-18T11:49:09.385Z,-3.60
2019-01-18T11:51:43.962Z,-3.60
2019-01-18T11:54:18.922Z,-3.70
2019-01-18T11:56:54.255Z,-3.70
2019-01-18T11:59:27.952Z,-3.70
2019-01-18T12:02:06.188Z,-3.60
2019-01-18T12:04:40.199Z,-3.60
2019-01-18T12:07:11.699Z,-3.60
2019-01-18T12:09:45.350Z,-3.60
2019-01-18T12:12:20.297Z,-3.70
2019-01-18T12:14:53.566Z,-3.70
2019-01-18T12:17:28.725Z,-3.60
2019-01-18T12:20:00.693Z,-3.60
2019-01-18T12:22:33.975Z,-3.60
2019-01-18T12:25:10.857Z,-3.60
2019-01-18T12:27:43.697Z,-3.60
2019-01-18T12:30:17.188Z,-3.60
2019-01-18T12:32:53.070Z,-3.50
2019-01-18T12:35:30.111Z,-3.60
2019-01-18T12:38:01.423Z,-3.60
2019-01-18T12:40:40.343Z,-3.60
2019-01-18T12:43:20.928Z,-3.60
2019-01-18T12:45:58.041Z,-3.60
2019-01-18T12:48:33.850Z,-3.60
2019-01-18T12:51:09.120Z,-3.60
2019-01-18T12:53:42.803Z,-3.60
2019-01-18T12:56:14.414Z,-3.70
2019-01-18T12:58:49.940Z,-3.70
2019-01-18T13:01:29.673Z,-3.80
2019-01-18T13:04:02.937Z,-3.80
2019-01-18T13:06:41.503Z,-3.70
2019-01-18T13:09:20.080Z,-3.80
2019-01-18T13:11:53.780Z,-3.80
2019-01-18T13:14:32.736Z,-3.80
2019-01-18T13:17:08.687Z,-3.80
2019-01-18T13:19:45.459Z,-3.90
2019-01-18T13:22:25.999Z,-3.80
2019-01-18T13:25:00.539Z,-3.80
2019-01-18T13:27:34.300Z,-3.90
2019-01-18T13:30:11.515Z,-3.90
2019-01-18T13:32:41.983Z,-3.90
2019-01-18T13:35:16.709Z,-4.00
2019-01-18T13:37:53.105Z,-3.90
2019-01-18T13:40:28.957Z,-3.90
2019-01-18T13:43:01.111Z,-4.00
2019-01-18T13:45:36.308Z,-4.00
2019-01-18T13:48:10.951Z,-4.00
2019-01-18T13:50:49.021Z,-4.10
2019-01-18T13:53:23.342Z,-4.10
2019-01-18T13:56:00.676Z,-4.10
2019-01-18T13:58:36.209Z,-4.10
2019-01-18T14:01:13.147Z,-4.10
2019-01-18T14:04:07.151Z,-4.10
2019-01-18T14:06:39.700Z,-4.10
2019-01-18T14:09:14.068Z,-4.10
2019-01-18T14:11:46.081Z,-4.10
2019-01-18T14:14:16.756Z,-4.00
2019-01-18T14:16:48.661Z,-4.00
2019-01-18T14:19:20.868Z,-4.00
2019-01-18T14:21:52.809Z,-4.00
2019-01-18T14:24:26.294Z,-4.10
2019-01-18T14:27:00.001Z,-4.10
2019-01-18T14:29:32.982Z,-4.00
2019-01-18T14:32:04.041Z,-4.20
2019-01-18T14:34:34.468Z,-4.20
2019-01-18T14:37:03.792Z,-4.20
2019-01-18T14:39:33.284Z,-4.20
2019-01-18T14:42:04.862Z,-4.20
2019-01-18T14:44:36.266Z,-4.30
2019-01-18T14:47:07.901Z,-4.30
2019-01-18T14:49:38.699Z,-4.30
2019-01-18T14:52:13.393Z,-4.30
2019-01-18T14:54:44.951Z,-4.30
2019-01-18T14:57:16.980Z,-4.30
2019-01-18T14:59:47.720Z,-4.20
2019-01-18T15:02:19.212Z,-4.20
2019-01-18T15:04:50.809Z,-4.20
2019-01-18T15:07:23.277Z,-4.10
2019-01-18T15:09:57.572Z,-4.20
2019-01-18T15:12:27.837Z,-4.10
2019-01-18T15:14:58.086Z,-4.10
2019-01-18T15:17:34.596Z,-4.10
2019-01-18T15:20:04.402Z,-4.10
2019-01-18T15:22:36.343Z,-4.20
2019-01-18T15:25:07.561Z,-4.20
2019-01-18T15:27:38.804Z,-4.20
2019-01-18T15:30:13.150Z,-4.30
2019-01-18T15:32:42.934Z,-4.30
2019-01-18T15:35:16.809Z,-4.20
2019-01-18T15:37:48.681Z,-4.20
2019-01-18T15:40:20.441Z,-4.20
2019-01-18T15:42:51.084Z,-4.20
2019-01-18T15:45:20.157Z,-4.20
2019-01-18T15:47:50.169Z,-4.30
2019-01-18T15:50:20.825Z,-4.40
2019-01-18T15:52:51.728Z,-4.40
2019-01-18T15:55:23.097Z,-4.50
2019-01-18T15:57:55.066Z,-4.40
2019-01-18T16:00:28.560Z,-4.50
2019-01-18T16:02:59.209Z,-4.50
2019-01-18T16:05:28.079Z,-4.50
2019-01-18T16:08:00.088Z,-4.50
2019-01-18T16:10:30.005Z,-4.40
2019-01-18T16:12:59.256Z,-4.50
2019-01-18T16:15:32.724Z,-4.50
2019-01-18T16:18:03.604Z,-4.50
2019-01-18T16:20:35.627Z,-4.50
2019-01-18T16:23:08.265Z,-4.60
2019-01-18T16:25:39.240Z,-4.60
2019-01-18T16:28:10.002Z,-4.60
2019-01-18T16:30:39.543Z,-4.60
2019-01-18T16:33:10.826Z,-4.50
2019-01-18T16:35:43.310Z,-4.60
2019-01-18T16:38:18.730Z,-4.60
2019-01-18T16:40:50.204Z,-4.70
2019-01-18T16:43:22.906Z,-4.70
2019-01-18T16:45:53.820Z,-4.80
2019-01-18T16:48:25.245Z,-4.80
2019-01-18T16:51:00.512Z,-4.80
2019-01-18T16:53:30.890Z,-4.80
2019-01-18T16:56:02.457Z,-4.80
2019-01-18T16:58:36.536Z,-4.90
2019-01-18T17:01:11.887Z,-4.80
2019-01-18T17:03:41.484Z,-4.90
2019-01-18T17:06:11.493Z,-4.90
2019-01-18T17:08:42.661Z,-4.90
2019-01-18T17:11:15.433Z,-4.90
2019-01-18T17:13:48.330Z,-5.00
2019-01-18T17:16:20.849Z,-5.00
2019-01-18T17:18:51.828Z,-4.90
2019-01-18T17:21:24.655Z,-5.00
2019-01-18T17:23:54.922Z,-5.10
2019-01-18T17:26:25.237Z,-5.10
2019-01-18T17:28:59.738Z,-5.10
2019-01-18T17:31:32.044Z,-5.10
2019-01-18T17:34:04.907Z,-5.10
2019-01-18T17:36:40.616Z,-5.20
2019-01-18T17:39:18.529Z,-5.20
2019-01-18T17:42:12.658Z,-5.10
2019-01-18T17:45:15.726Z,-5.10
2019-01-18T17:47:53.448Z,-5.10
2019-01-18T17:50:42.696Z,-5.10
2019-01-18T17:53:26.636Z,-5.00
2019-01-18T17:56:34.613Z,-5.10
2019-01-18T17:59:26.314Z,-5.10
2019-01-18T18:02:18.858Z,-5.20
2019-01-18T18:05:02.962Z,-5.20
2019-01-18T18:07:44.468Z,-5.20
2019-01-18T18:10:18.966Z,-5.30
2019-01-18T18:13:03.244Z,-5.30
2019-01-18T18:15:38.066Z,-5.40
2019-01-18T18:18:33.956Z,-5.40
2019-01-18T18:21:30.080Z,-5.40
2019-01-18T18:24:31.894Z,-5.40
2019-01-18T18:27:24.810Z,-5.40
2019-01-18T18:30:24.841Z,-5.40
2019-01-18T18:33:26.785Z,-5.50
2019-01-18T18:36:20.409Z,-5.50
2019-01-18T18:39:03.229Z,-5.60
2019-01-18T18:41:59.912Z,-5.50
2019-01-18T18:44:48.106Z,-5.60
2019-01-18T18:47:47.217Z,-5.60
2019-01-18T18:50:31.831Z,-5.60
2019-01-18T18:53:25.153Z,-5.70
2019-01-18T18:56:00.619Z,-5.70
2019-01-18T18:59:04.597Z,-5.60
2019-01-18T19:01:52.244Z,-5.60
2019-01-18T19:04:44.971Z,-5.60
2019-01-18T19:07:38.584Z,-5.70
2019-01-18T19:10:31.188Z,-5.70
2019-01-18T19:13:18.969Z,-5.80
2019-01-18T19:16:09.037Z,-5.90
2019-01-18T19:18:58.154Z,-5.90
2019-01-18T19:22:00.453Z,-5.90
2019-01-18T19:24:45.967Z,-5.90
2019-01-18T19:27:33.962Z,-5.80
2019-01-18T19:30:34.537Z,-5.90
2019-01-18T19:33:14.361Z,-5.90
2019-01-18T19:35:52.906Z,-5.90
2019-01-18T19:38:35.309Z,-5.90
2019-01-18T19:41:26.205Z,-5.80
2019-01-18T19:44:22.209Z,-5.90
2019-01-18T19:47:26.185Z,-5.90
2019-01-18T19:50:15.962Z,-5.80
2019-01-18T19:52:56.016Z,-5.80
2019-01-18T19:55:36.609Z,-5.80
2019-01-18T19:58:27.305Z,-5.80
2019-01-18T20:01:02.701Z,-5.80
2019-01-18T20:03:56.297Z,-5.80
2019-01-18T20:06:37.464Z,-5.90
2019-01-18T20:09:25.745Z,-5.90
2019-01-18T20:12:18.361Z,-5.90
2019-01-18T20:14:51.869Z,-5.90
2019-01-18T20:17:51.690Z,-5.90
2019-01-18T20:20:32.343Z,-6.00
2019-01-18T20:23:26.269Z,-6.00
2019-01-18T20:26:23.120Z,-6.00
2019-01-18T20:29:08.917Z,-6.00
2019-01-18T20:31:53.104Z,-6.10
2019-01-18T20:34:45.149Z,-6.10
2019-01-18T20:37:23.401Z,-6.10
2019-01-18T20:40:12.065Z,-6.10
2019-01-18T20:42:55.251Z,-6.10
2019-01-18T20:45:34.985Z,-6.20
2019-01-18T20:48:24.488Z,-6.10
2019-01-18T20:51:14.100Z,-6.10
2019-01-18T20:54:02.652Z,-6.10
2019-01-18T20:56:42.448Z,-6.10
2019-01-18T20:59:30.021Z,-6.10
2019-01-18T21:02:22.677Z,-6.20
2019-01-18T21:05:09.101Z,-6.20
2019-01-18T21:07:55.434Z,-6.10
2019-01-18T21:10:30.970Z,-6.20
2019-01-18T21:13:08.104Z,-6.10
2019-01-18T21:15:51.304Z,-6.10
2019-01-18T21:18:43.261Z,-6.10
2019-01-18T21:21:27.117Z,-6.20
2019-01-18T21:24:24.482Z,-6.20
2019-01-18T21:27:11.535Z,-6.10
2019-01-18T21:30:00.100Z,-6.20
2019-01-18T21:32:48.176Z,-6.20
2019-01-18T21:35:50.601Z,-6.20
2019-01-18T21:38:31.704Z,-6.20
2019-01-18T21:41:25.220Z,-6.20
2019-01-18T21:44:09.686Z,-6.20
2019-01-18T21:47:07.881Z,-6.20
2019-01-18T21:49:57.002Z,-6.20
2019-01-18T21:52:35.427Z,-6.20
2019-01-18T21:55:36.877Z,-6.30
2019-01-18T21:58:16.145Z,-6.30
2019-01-18T22:01:00.055Z,-6.30
2019-01-18T22:04:03.129Z,-6.40
2019-01-18T22:06:52.113Z,-6.40
2019-01-18T22:09:29.915Z,-6.40
2019-01-18T22:12:29.449Z,-6.40
2019-01-18T22:15:22.194Z,-6.40
2019-01-18T22:18:06.405Z,-6.40
2019-01-18T22:20:59.979Z,-6.50
2019-01-18T22:23:52.821Z,-6.50
2019-01-18T22:26:31.658Z,-6.50
2019-01-18T22:29:12.136Z,-6.50
2019-01-18T22:31:54.796Z,-6.60
2019-01-18T22:34:39.499Z,-6.60
2019-01-18T22:37:19.216Z,-6.60
2019-01-18T22:39:58.697Z,-6.70
2019-01-18T22:42:53.390Z,-6.70
2019-01-18T22:45:50.107Z,-6.70
2019-01-18T22:48:58.076Z,-6.60
2019-01-18T22:51:50.766Z,-6.70
2019-01-18T22:54:39.026Z,-6.70
2019-01-18T22:57:22.105Z,-6.60
2019-01-18T23:00:01.522Z,-6.60
2019-01-18T23:02:51.849Z,-6.70
2019-01-18T23:05:41.317Z,-6.70
2019-01-18T23:08:38.776Z,-6.70
2019-01-18T23:11:33.308Z,-6.70
2019-01-18T23:14:21.362Z,-6.70
2019-01-18T23:17:13.978Z,-6.70
2019-01-18T23:20:13.444Z,-6.70
2019-01-18T23:23:09.057Z,-6.60
2019-01-18T23:25:53.110Z,-6.60
2019-01-18T23:28:44.812Z,-6.60
2019-01-18T23:31:36.350Z,-6.60
2019-01-18T23:34:31.929Z,-6.70
2019-01-18T23:37:27.829Z,-6.60
2019-01-18T23:40:11.610Z,-6.70
2019-01-18T23:43:00.633Z,-6.60
2019-01-18T23:45:44.782Z,-6.50
2019-01-18T23:48:36.909Z,-6.50
2019-01-18T23:51:21.269Z,-6.50
2019-01-18T23:53:57.708Z,-6.60
2019-01-18T23:56:34.378Z,-6.60
2019-01-18T23:59:44.333Z,-6.60
